sensor_id;sensor_type;location;lat;lon;timestamp;P1;durP1;ratioP1;P2;durP2;ratioP2
28828;SDS011;15966;51.540;11.870;2023-11-19T00:00:56;6.07;;;3.28;;
28828;SDS011;15966;51.540;11.870;2023-11-19T00:03:22;3.67;;;3.13;;
28828;SDS011;15966;51.540;11.870;2023-11-19T00:05:49;3.33;;;2.83;;
28828;SDS011;15966;51.540;11.870;2023-11-19T00:08:15;3.08;;;2.78;;
28828;SDS011;15966;51.540;11.870;2023-11-19T00:10:41;3.75;;;3.35;;
28828;SDS011;15966;51.540;11.870;2023-11-19T00:13:07;3.40;;;3.10;;
28828;SDS011;15966;51.540;11.870;2023-11-19T00:15:35;4.38;;;3.47;;
28828;SDS011;15966;51.540;11.870;2023-11-19T00:18:01;4.32;;;2.97;;
28828;SDS011;15966;51.540;11.870;2023-11-19T00:20:29;3.78;;;3.10;;
28828;SDS011;15966;51.540;11.870;2023-11-19T00:22:56;3.08;;;2.78;;
28828;SDS011;15966;51.540;11.870;2023-11-19T00:25:22;2.75;;;2.55;;
28828;SDS011;15966;51.540;11.870;2023-11-19T00:27:48;3.75;;;3.45;;
28828;SDS011;15966;51.540;11.870;2023-11-19T00:30:16;3.85;;;3.15;;
28828;SDS011;15966;51.540;11.870;2023-11-19T00:32:42;4.78;;;2.80;;
28828;SDS011;15966;51.540;11.870;2023-11-19T00:35:09;3.13;;;2.83;;
28828;SDS011;15966;51.540;11.870;2023-11-19T00:37:35;3.83;;;3.45;;
28828;SDS011;15966;51.540;11.870;2023-11-19T00:40:01;2.70;;;2.50;;
28828;SDS011;15966;51.540;11.870;2023-11-19T00:42:30;2.80;;;2.60;;
28828;SDS011;15966;51.540;11.870;2023-11-19T00:44:56;3.25;;;2.95;;
28828;SDS011;15966;51.540;11.870;2023-11-19T00:47:23;3.42;;;3.13;;
28828;SDS011;15966;51.540;11.870;2023-11-19T00:49:49;3.60;;;3.08;;
28828;SDS011;15966;51.540;11.870;2023-11-19T00:52:18;3.83;;;3.53;;
28828;SDS011;15966;51.540;11.870;2023-11-19T00:54:44;4.50;;;3.25;;
28828;SDS011;15966;51.540;11.870;2023-11-19T00:57:10;3.72;;;3.40;;
28828;SDS011;15966;51.540;11.870;2023-11-19T00:59:36;3.35;;;3.05;;
28828;SDS011;15966;51.540;11.870;2023-11-19T01:02:03;4.18;;;3.78;;
28828;SDS011;15966;51.540;11.870;2023-11-19T01:04:34;3.95;;;3.08;;
28828;SDS011;15966;51.540;11.870;2023-11-19T01:07:03;4.25;;;3.20;;
28828;SDS011;15966;51.540;11.870;2023-11-19T01:09:31;3.35;;;3.05;;
28828;SDS011;15966;51.540;11.870;2023-11-19T01:11:59;3.50;;;3.20;;
28828;SDS011;15966;51.540;11.870;2023-11-19T01:14:26;3.75;;;3.45;;
28828;SDS011;15966;51.540;11.870;2023-11-19T01:16:53;3.65;;;3.35;;
28828;SDS011;15966;51.540;11.870;2023-11-19T01:19:19;4.18;;;3.80;;
28828;SDS011;15966;51.540;11.870;2023-11-19T01:21:49;4.20;;;3.40;;
28828;SDS011;15966;51.540;11.870;2023-11-19T01:24:15;3.78;;;3.13;;
28828;SDS011;15966;51.540;11.870;2023-11-19T01:26:43;4.72;;;4.22;;
28828;SDS011;15966;51.540;11.870;2023-11-19T01:29:12;3.22;;;2.92;;
28828;SDS011;15966;51.540;11.870;2023-11-19T01:31:42;5.28;;;3.88;;
28828;SDS011;15966;51.540;11.870;2023-11-19T01:34:08;4.70;;;4.03;;
28828;SDS011;15966;51.540;11.870;2023-11-19T01:36:35;4.30;;;3.33;;
28828;SDS011;15966;51.540;11.870;2023-11-19T01:39:01;4.55;;;2.97;;
28828;SDS011;15966;51.540;11.870;2023-11-19T01:41:29;4.30;;;2.92;;
28828;SDS011;15966;51.540;11.870;2023-11-19T01:43:59;5.95;;;2.95;;
28828;SDS011;15966;51.540;11.870;2023-11-19T01:46:25;3.60;;;3.30;;
28828;SDS011;15966;51.540;11.870;2023-11-19T01:48:51;4.28;;;2.92;;
28828;SDS011;15966;51.540;11.870;2023-11-19T01:51:19;3.65;;;3.35;;
28828;SDS011;15966;51.540;11.870;2023-11-19T01:53:45;3.17;;;2.88;;
28828;SDS011;15966;51.540;11.870;2023-11-19T01:56:12;3.38;;;3.05;;
28828;SDS011;15966;51.540;11.870;2023-11-19T02:01:06;2.90;;;2.53;;
28828;SDS011;15966;51.540;11.870;2023-11-19T02:03:32;5.28;;;4.05;;
28828;SDS011;15966;51.540;11.870;2023-11-19T02:06:02;3.40;;;3.03;;
28828;SDS011;15966;51.540;11.870;2023-11-19T02:08:29;3.38;;;3.08;;
28828;SDS011;15966;51.540;11.870;2023-11-19T02:10:55;4.35;;;3.95;;
28828;SDS011;15966;51.540;11.870;2023-11-19T02:13:25;3.45;;;3.13;;
28828;SDS011;15966;51.540;11.870;2023-11-19T02:15:52;4.03;;;3.63;;
28828;SDS011;15966;51.540;11.870;2023-11-19T02:20:56;3.95;;;3.38;;
28828;SDS011;15966;51.540;11.870;2023-11-19T02:23:22;3.67;;;2.87;;
28828;SDS011;15966;51.540;11.870;2023-11-19T02:25:56;2.90;;;2.70;;
28828;SDS011;15966;51.540;11.870;2023-11-19T02:28:30;3.00;;;2.70;;
28828;SDS011;15966;51.540;11.870;2023-11-19T02:30:58;3.53;;;2.50;;
28828;SDS011;15966;51.540;11.870;2023-11-19T02:33:24;3.47;;;2.42;;
28828;SDS011;15966;51.540;11.870;2023-11-19T02:35:50;3.60;;;3.22;;
28828;SDS011;15966;51.540;11.870;2023-11-19T02:38:16;4.53;;;3.85;;
28828;SDS011;15966;51.540;11.870;2023-11-19T02:40:42;3.88;;;3.58;;
28828;SDS011;15966;51.540;11.870;2023-11-19T02:43:08;7.35;;;4.30;;
28828;SDS011;15966;51.540;11.870;2023-11-19T02:45:35;4.93;;;4.40;;
28828;SDS011;15966;51.540;11.870;2023-11-19T02:48:01;4.18;;;3.78;;
28828;SDS011;15966;51.540;11.870;2023-11-19T02:50:27;3.42;;;3.00;;
28828;SDS011;15966;51.540;11.870;2023-11-19T02:52:53;4.18;;;3.78;;
28828;SDS011;15966;51.540;11.870;2023-11-19T02:55:24;4.15;;;3.75;;
28828;SDS011;15966;51.540;11.870;2023-11-19T02:57:52;4.20;;;3.60;;
28828;SDS011;15966;51.540;11.870;2023-11-19T03:00:19;3.13;;;2.90;;
28828;SDS011;15966;51.540;11.870;2023-11-19T03:02:53;3.47;;;3.17;;
28828;SDS011;15966;51.540;11.870;2023-11-19T03:05:30;4.07;;;3.67;;
28828;SDS011;15966;51.540;11.870;2023-11-19T03:07:56;4.20;;;3.40;;
28828;SDS011;15966;51.540;11.870;2023-11-19T03:10:22;3.08;;;2.85;;
28828;SDS011;15966;51.540;11.870;2023-11-19T03:12:48;2.30;;;2.03;;
28828;SDS011;15966;51.540;11.870;2023-11-19T03:15:15;1.67;;;1.58;;
28828;SDS011;15966;51.540;11.870;2023-11-19T03:17:41;1.38;;;1.10;;
28828;SDS011;15966;51.540;11.870;2023-11-19T03:20:09;1.20;;;1.10;;
28828;SDS011;15966;51.540;11.870;2023-11-19T03:22:39;1.63;;;1.23;;
28828;SDS011;15966;51.540;11.870;2023-11-19T03:25:06;1.50;;;1.40;;
28828;SDS011;15966;51.540;11.870;2023-11-19T03:27:37;0.98;;;0.98;;
28828;SDS011;15966;51.540;11.870;2023-11-19T03:30:04;2.47;;;1.95;;
28828;SDS011;15966;51.540;11.870;2023-11-19T03:32:31;3.57;;;1.73;;
28828;SDS011;15966;51.540;11.870;2023-11-19T03:34:58;1.10;;;1.00;;
28828;SDS011;15966;51.540;11.870;2023-11-19T03:37:24;0.80;;;0.80;;
28828;SDS011;15966;51.540;11.870;2023-11-19T03:39:54;1.65;;;1.02;;
28828;SDS011;15966;51.540;11.870;2023-11-19T03:42:24;2.35;;;0.93;;
28828;SDS011;15966;51.540;11.870;2023-11-19T03:44:51;1.30;;;0.97;;
28828;SDS011;15966;51.540;11.870;2023-11-19T03:47:18;1.45;;;1.13;;
28828;SDS011;15966;51.540;11.870;2023-11-19T03:49:48;1.40;;;1.15;;
28828;SDS011;15966;51.540;11.870;2023-11-19T03:52:15;0.93;;;0.90;;
28828;SDS011;15966;51.540;11.870;2023-11-19T03:54:41;2.15;;;1.00;;
28828;SDS011;15966;51.540;11.870;2023-11-19T03:57:07;0.70;;;0.70;;
28828;SDS011;15966;51.540;11.870;2023-11-19T04:02:01;0.90;;;0.80;;
28828;SDS011;15966;51.540;11.870;2023-11-19T04:04:27;1.17;;;1.02;;
28828;SDS011;15966;51.540;11.870;2023-11-19T04:06:57;1.20;;;1.10;;
28828;SDS011;15966;51.540;11.870;2023-11-19T04:09:24;2.17;;;1.00;;
28828;SDS011;15966;51.540;11.870;2023-11-19T04:11:50;0.70;;;0.70;;
28828;SDS011;15966;51.540;11.870;2023-11-19T04:14:16;1.02;;;0.95;;
28828;SDS011;15966;51.540;11.870;2023-11-19T04:16:43;1.08;;;0.77;;
28828;SDS011;15966;51.540;11.870;2023-11-19T04:19:10;0.80;;;0.80;;
28828;SDS011;15966;51.540;11.870;2023-11-19T04:21:36;1.25;;;1.15;;
28828;SDS011;15966;51.540;11.870;2023-11-19T04:24:05;0.95;;;0.95;;
28828;SDS011;15966;51.540;11.870;2023-11-19T04:26:31;1.13;;;1.10;;
28828;SDS011;15966;51.540;11.870;2023-11-19T04:28:58;0.95;;;0.88;;
28828;SDS011;15966;51.540;11.870;2023-11-19T04:31:28;2.17;;;1.05;;
28828;SDS011;15966;51.540;11.870;2023-11-19T04:33:56;1.15;;;0.70;;
28828;SDS011;15966;51.540;11.870;2023-11-19T04:36:22;0.93;;;0.82;;
28828;SDS011;15966;51.540;11.870;2023-11-19T04:38:49;0.70;;;0.70;;
28828;SDS011;15966;51.540;11.870;2023-11-19T04:41:15;2.05;;;0.90;;
28828;SDS011;15966;51.540;11.870;2023-11-19T04:43:41;0.95;;;0.88;;
28828;SDS011;15966;51.540;11.870;2023-11-19T04:46:09;0.80;;;0.80;;
28828;SDS011;15966;51.540;11.870;2023-11-19T04:48:35;6.88;;;2.05;;
28828;SDS011;15966;51.540;11.870;2023-11-19T04:51:01;0.68;;;0.68;;
28828;SDS011;15966;51.540;11.870;2023-11-19T04:53:30;0.70;;;0.70;;
28828;SDS011;15966;51.540;11.870;2023-11-19T04:55:56;2.45;;;0.75;;
28828;SDS011;15966;51.540;11.870;2023-11-19T04:58:22;2.05;;;0.80;;
28828;SDS011;15966;51.540;11.870;2023-11-19T05:00:48;2.78;;;0.80;;
28828;SDS011;15966;51.540;11.870;2023-11-19T05:03:14;1.38;;;1.27;;
28828;SDS011;15966;51.540;11.870;2023-11-19T05:05:40;2.72;;;1.35;;
28828;SDS011;15966;51.540;11.870;2023-11-19T05:08:06;1.52;;;0.95;;
28828;SDS011;15966;51.540;11.870;2023-11-19T05:10:32;1.20;;;1.10;;
28828;SDS011;15966;51.540;11.870;2023-11-19T05:13:01;0.60;;;0.60;;
28828;SDS011;15966;51.540;11.870;2023-11-19T05:15:27;0.52;;;0.52;;
28828;SDS011;15966;51.540;11.870;2023-11-19T05:17:53;0.85;;;0.45;;
28828;SDS011;15966;51.540;11.870;2023-11-19T05:20:20;1.05;;;0.73;;
28828;SDS011;15966;51.540;11.870;2023-11-19T05:22:46;0.55;;;0.55;;
28828;SDS011;15966;51.540;11.870;2023-11-19T05:25:13;1.02;;;0.80;;
28828;SDS011;15966;51.540;11.870;2023-11-19T05:27:39;0.50;;;0.50;;
28828;SDS011;15966;51.540;11.870;2023-11-19T05:30:05;0.63;;;0.50;;
28828;SDS011;15966;51.540;11.870;2023-11-19T05:32:35;0.45;;;0.45;;
28828;SDS011;15966;51.540;11.870;2023-11-19T05:35:01;0.47;;;0.45;;
28828;SDS011;15966;51.540;11.870;2023-11-19T05:37:27;1.50;;;0.60;;
28828;SDS011;15966;51.540;11.870;2023-11-19T05:39:53;1.15;;;0.80;;
28828;SDS011;15966;51.540;11.870;2023-11-19T05:42:19;1.55;;;0.82;;
28828;SDS011;15966;51.540;11.870;2023-11-19T05:44:46;0.82;;;0.43;;
28828;SDS011;15966;51.540;11.870;2023-11-19T05:47:12;0.50;;;0.50;;
28828;SDS011;15966;51.540;11.870;2023-11-19T05:49:38;2.45;;;0.85;;
28828;SDS011;15966;51.540;11.870;2023-11-19T05:52:04;0.40;;;0.40;;
28828;SDS011;15966;51.540;11.870;2023-11-19T05:54:32;0.60;;;0.50;;
28828;SDS011;15966;51.540;11.870;2023-11-19T05:57:03;0.85;;;0.43;;
28828;SDS011;15966;51.540;11.870;2023-11-19T05:59:29;0.30;;;0.30;;
28828;SDS011;15966;51.540;11.870;2023-11-19T06:01:58;0.80;;;0.60;;
28828;SDS011;15966;51.540;11.870;2023-11-19T06:04:24;0.60;;;0.50;;
28828;SDS011;15966;51.540;11.870;2023-11-19T06:06:50;0.95;;;0.60;;
28828;SDS011;15966;51.540;11.870;2023-11-19T06:09:16;3.33;;;1.00;;
28828;SDS011;15966;51.540;11.870;2023-11-19T06:11:43;0.63;;;0.63;;
28828;SDS011;15966;51.540;11.870;2023-11-19T06:14:09;1.40;;;0.60;;
28828;SDS011;15966;51.540;11.870;2023-11-19T06:16:36;1.77;;;0.77;;
28828;SDS011;15966;51.540;11.870;2023-11-19T06:19:04;0.55;;;0.55;;
28828;SDS011;15966;51.540;11.870;2023-11-19T06:21:30;1.38;;;0.70;;
28828;SDS011;15966;51.540;11.870;2023-11-19T06:23:56;2.72;;;0.90;;
28828;SDS011;15966;51.540;11.870;2023-11-19T06:26:23;0.47;;;0.47;;
28828;SDS011;15966;51.540;11.870;2023-11-19T06:28:49;2.05;;;0.80;;
28828;SDS011;15966;51.540;11.870;2023-11-19T06:31:15;0.55;;;0.55;;
28828;SDS011;15966;51.540;11.870;2023-11-19T06:33:41;1.92;;;1.20;;
28828;SDS011;15966;51.540;11.870;2023-11-19T06:36:08;0.68;;;0.68;;
28828;SDS011;15966;51.540;11.870;2023-11-19T06:38:34;1.35;;;0.95;;
28828;SDS011;15966;51.540;11.870;2023-11-19T06:41:00;1.25;;;0.55;;
28828;SDS011;15966;51.540;11.870;2023-11-19T06:43:27;0.60;;;0.55;;
28828;SDS011;15966;51.540;11.870;2023-11-19T06:45:53;0.57;;;0.57;;
28828;SDS011;15966;51.540;11.870;2023-11-19T06:48:19;0.80;;;0.80;;
28828;SDS011;15966;51.540;11.870;2023-11-19T06:50:45;0.60;;;0.60;;
28828;SDS011;15966;51.540;11.870;2023-11-19T06:53:12;0.43;;;0.43;;
28828;SDS011;15966;51.540;11.870;2023-11-19T06:55:38;1.20;;;0.70;;
28828;SDS011;15966;51.540;11.870;2023-11-19T06:58:05;0.57;;;0.57;;
28828;SDS011;15966;51.540;11.870;2023-11-19T07:00:32;0.55;;;0.55;;
28828;SDS011;15966;51.540;11.870;2023-11-19T07:02:58;1.00;;;0.90;;
28828;SDS011;15966;51.540;11.870;2023-11-19T07:05:25;2.22;;;1.05;;
28828;SDS011;15966;51.540;11.870;2023-11-19T07:07:52;0.88;;;0.63;;
28828;SDS011;15966;51.540;11.870;2023-11-19T07:10:19;0.50;;;0.50;;
28828;SDS011;15966;51.540;11.870;2023-11-19T07:12:45;1.23;;;1.13;;
28828;SDS011;15966;51.540;11.870;2023-11-19T07:15:12;1.02;;;1.02;;
28828;SDS011;15966;51.540;11.870;2023-11-19T07:17:38;1.10;;;1.00;;
28828;SDS011;15966;51.540;11.870;2023-11-19T07:20:05;1.33;;;1.20;;
28828;SDS011;15966;51.540;11.870;2023-11-19T07:22:31;0.95;;;0.90;;
28828;SDS011;15966;51.540;11.870;2023-11-19T07:24:57;0.95;;;0.93;;
28828;SDS011;15966;51.540;11.870;2023-11-19T07:27:23;1.70;;;1.60;;
28828;SDS011;15966;51.540;11.870;2023-11-19T07:29:50;2.08;;;1.92;;
28828;SDS011;15966;51.540;11.870;2023-11-19T07:32:16;1.00;;;1.00;;
28828;SDS011;15966;51.540;11.870;2023-11-19T07:34:43;1.35;;;1.25;;
28828;SDS011;15966;51.540;11.870;2023-11-19T07:37:09;1.48;;;1.08;;
28828;SDS011;15966;51.540;11.870;2023-11-19T07:39:35;1.77;;;1.60;;
28828;SDS011;15966;51.540;11.870;2023-11-19T07:42:03;1.90;;;1.60;;
28828;SDS011;15966;51.540;11.870;2023-11-19T07:44:29;1.45;;;1.38;;
28828;SDS011;15966;51.540;11.870;2023-11-19T07:46:55;1.83;;;1.40;;
28828;SDS011;15966;51.540;11.870;2023-11-19T07:49:22;1.38;;;1.27;;
28828;SDS011;15966;51.540;11.870;2023-11-19T07:51:48;0.90;;;0.82;;
28828;SDS011;15966;51.540;11.870;2023-11-19T07:54:14;1.95;;;1.52;;
28828;SDS011;15966;51.540;11.870;2023-11-19T07:56:40;2.72;;;1.85;;
28828;SDS011;15966;51.540;11.870;2023-11-19T07:59:06;0.50;;;0.50;;
28828;SDS011;15966;51.540;11.870;2023-11-19T08:01:32;0.90;;;0.90;;
28828;SDS011;15966;51.540;11.870;2023-11-19T08:03:58;2.38;;;0.80;;
28828;SDS011;15966;51.540;11.870;2023-11-19T08:06:26;4.15;;;1.15;;
28828;SDS011;15966;51.540;11.870;2023-11-19T08:08:52;2.85;;;0.95;;
28828;SDS011;15966;51.540;11.870;2023-11-19T08:11:19;0.80;;;0.80;;
28828;SDS011;15966;51.540;11.870;2023-11-19T08:13:45;1.13;;;1.05;;
28828;SDS011;15966;51.540;11.870;2023-11-19T08:16:11;1.33;;;1.17;;
28828;SDS011;15966;51.540;11.870;2023-11-19T08:18:37;0.90;;;0.82;;
28828;SDS011;15966;51.540;11.870;2023-11-19T08:21:04;0.60;;;0.60;;
28828;SDS011;15966;51.540;11.870;2023-11-19T08:23:30;1.60;;;1.30;;
28828;SDS011;15966;51.540;11.870;2023-11-19T08:25:56;1.35;;;0.90;;
28828;SDS011;15966;51.540;11.870;2023-11-19T08:28:22;1.00;;;1.00;;
28828;SDS011;15966;51.540;11.870;2023-11-19T08:30:48;1.95;;;1.17;;
28828;SDS011;15966;51.540;11.870;2023-11-19T08:33:15;1.50;;;1.40;;
28828;SDS011;15966;51.540;11.870;2023-11-19T08:35:42;1.55;;;1.20;;
28828;SDS011;15966;51.540;11.870;2023-11-19T08:38:08;2.03;;;1.70;;
28828;SDS011;15966;51.540;11.870;2023-11-19T08:40:34;1.75;;;1.63;;
28828;SDS011;15966;51.540;11.870;2023-11-19T08:43:00;2.08;;;1.85;;
28828;SDS011;15966;51.540;11.870;2023-11-19T08:45:26;2.10;;;1.40;;
28828;SDS011;15966;51.540;11.870;2023-11-19T08:47:52;4.65;;;1.67;;
28828;SDS011;15966;51.540;11.870;2023-11-19T08:50:18;1.80;;;1.70;;
28828;SDS011;15966;51.540;11.870;2023-11-19T08:52:44;2.25;;;1.70;;
28828;SDS011;15966;51.540;11.870;2023-11-19T08:55:10;3.22;;;1.20;;
28828;SDS011;15966;51.540;11.870;2023-11-19T09:00:04;1.38;;;1.25;;
28828;SDS011;15966;51.540;11.870;2023-11-19T09:02:37;3.13;;;1.52;;
28828;SDS011;15966;51.540;11.870;2023-11-19T09:05:04;2.95;;;2.13;;
28828;SDS011;15966;51.540;11.870;2023-11-19T09:07:32;2.70;;;1.15;;
28828;SDS011;15966;51.540;11.870;2023-11-19T09:09:58;3.80;;;1.52;;
28828;SDS011;15966;51.540;11.870;2023-11-19T09:12:24;1.80;;;1.40;;
28828;SDS011;15966;51.540;11.870;2023-11-19T09:14:50;2.00;;;1.10;;
28828;SDS011;15966;51.540;11.870;2023-11-19T09:17:16;2.22;;;1.83;;
28828;SDS011;15966;51.540;11.870;2023-11-19T09:19:43;1.63;;;1.40;;
28828;SDS011;15966;51.540;11.870;2023-11-19T09:22:09;3.83;;;2.60;;
28828;SDS011;15966;51.540;11.870;2023-11-19T09:24:35;7.22;;;2.63;;
28828;SDS011;15966;51.540;11.870;2023-11-19T09:27:01;3.50;;;2.25;;
28828;SDS011;15966;51.540;11.870;2023-11-19T09:29:27;1.80;;;1.60;;
28828;SDS011;15966;51.540;11.870;2023-11-19T09:31:56;4.85;;;2.42;;
28828;SDS011;15966;51.540;11.870;2023-11-19T09:34:22;2.35;;;2.15;;
28828;SDS011;15966;51.540;11.870;2023-11-19T09:36:48;3.42;;;1.92;;
28828;SDS011;15966;51.540;11.870;2023-11-19T09:39:14;3.05;;;1.80;;
28828;SDS011;15966;51.540;11.870;2023-11-19T09:41:42;1.85;;;1.75;;
28828;SDS011;15966;51.540;11.870;2023-11-19T09:44:10;4.97;;;1.40;;
28828;SDS011;15966;51.540;11.870;2023-11-19T09:46:37;4.55;;;1.80;;
28828;SDS011;15966;51.540;11.870;2023-11-19T09:49:04;3.72;;;2.67;;
28828;SDS011;15966;51.540;11.870;2023-11-19T09:51:33;6.93;;;3.80;;
28828;SDS011;15966;51.540;11.870;2023-11-19T09:54:00;4.32;;;3.05;;
28828;SDS011;15966;51.540;11.870;2023-11-19T09:56:27;4.85;;;3.58;;
28828;SDS011;15966;51.540;11.870;2023-11-19T09:58:55;3.35;;;3.05;;
28828;SDS011;15966;51.540;11.870;2023-11-19T10:01:21;4.15;;;2.95;;
28828;SDS011;15966;51.540;11.870;2023-11-19T10:03:47;6.68;;;2.85;;
28828;SDS011;15966;51.540;11.870;2023-11-19T10:06:14;5.35;;;2.17;;
28828;SDS011;15966;51.540;11.870;2023-11-19T10:08:41;3.05;;;2.17;;
28828;SDS011;15966;51.540;11.870;2023-11-19T10:11:08;2.47;;;1.83;;
28828;SDS011;15966;51.540;11.870;2023-11-19T10:13:38;1.77;;;1.52;;
28828;SDS011;15966;51.540;11.870;2023-11-19T10:16:07;5.85;;;2.90;;
28828;SDS011;15966;51.540;11.870;2023-11-19T10:18:37;3.85;;;1.52;;
28828;SDS011;15966;51.540;11.870;2023-11-19T10:21:11;3.92;;;1.85;;
28828;SDS011;15966;51.540;11.870;2023-11-19T10:23:47;5.57;;;2.58;;
28828;SDS011;15966;51.540;11.870;2023-11-19T10:26:17;4.15;;;2.00;;
28828;SDS011;15966;51.540;11.870;2023-11-19T10:28:44;2.57;;;2.37;;
28828;SDS011;15966;51.540;11.870;2023-11-19T10:33:38;3.13;;;2.40;;
28828;SDS011;15966;51.540;11.870;2023-11-19T10:36:05;2.60;;;1.90;;
28828;SDS011;15966;51.540;11.870;2023-11-19T10:38:31;10.30;;;2.92;;
28828;SDS011;15966;51.540;11.870;2023-11-19T10:40:57;3.72;;;2.00;;
28828;SDS011;15966;51.540;11.870;2023-11-19T10:43:24;6.05;;;1.75;;
28828;SDS011;15966;51.540;11.870;2023-11-19T10:45:50;6.80;;;2.13;;
28828;SDS011;15966;51.540;11.870;2023-11-19T10:48:17;2.47;;;1.80;;
28828;SDS011;15966;51.540;11.870;2023-11-19T10:50:44;5.25;;;2.08;;
28828;SDS011;15966;51.540;11.870;2023-11-19T10:53:11;4.65;;;2.08;;
28828;SDS011;15966;51.540;11.870;2023-11-19T10:55:43;6.10;;;2.13;;
28828;SDS011;15966;51.540;11.870;2023-11-19T10:58:13;4.75;;;2.30;;
28828;SDS011;15966;51.540;11.870;2023-11-19T11:03:19;7.00;;;3.05;;
28828;SDS011;15966;51.540;11.870;2023-11-19T11:05:48;6.07;;;2.70;;
28828;SDS011;15966;51.540;11.870;2023-11-19T11:08:15;6.70;;;3.10;;
28828;SDS011;15966;51.540;11.870;2023-11-19T11:10:45;9.57;;;3.47;;
28828;SDS011;15966;51.540;11.870;2023-11-19T11:13:15;13.43;;;4.38;;
28828;SDS011;15966;51.540;11.870;2023-11-19T11:15:42;15.70;;;3.72;;
28828;SDS011;15966;51.540;11.870;2023-11-19T11:18:08;16.08;;;4.45;;
28828;SDS011;15966;51.540;11.870;2023-11-19T11:20:35;19.90;;;5.40;;
28828;SDS011;15966;51.540;11.870;2023-11-19T11:23:13;10.02;;;4.25;;
28828;SDS011;15966;51.540;11.870;2023-11-19T11:26:23;16.10;;;3.95;;
28828;SDS011;15966;51.540;11.870;2023-11-19T11:28:56;14.05;;;4.18;;
28828;SDS011;15966;51.540;11.870;2023-11-19T11:34:57;18.30;;;5.38;;
28828;SDS011;15966;51.540;11.870;2023-11-19T11:37:35;17.97;;;5.63;;
28828;SDS011;15966;51.540;11.870;2023-11-19T11:40:04;15.77;;;3.90;;
28828;SDS011;15966;51.540;11.870;2023-11-19T11:42:38;15.02;;;3.85;;
28828;SDS011;15966;51.540;11.870;2023-11-19T11:45:08;16.23;;;4.57;;
28828;SDS011;15966;51.540;11.870;2023-11-19T11:50:19;8.60;;;3.22;;
28828;SDS011;15966;51.540;11.870;2023-11-19T11:55:27;16.52;;;4.18;;
28828;SDS011;15966;51.540;11.870;2023-11-19T11:58:17;11.50;;;3.65;;
28828;SDS011;15966;51.540;11.870;2023-11-19T12:00:43;15.60;;;3.88;;
28828;SDS011;15966;51.540;11.870;2023-11-19T12:03:09;14.63;;;4.88;;
28828;SDS011;15966;51.540;11.870;2023-11-19T12:05:46;12.88;;;4.07;;
28828;SDS011;15966;51.540;11.870;2023-11-19T12:08:13;12.25;;;4.63;;
28828;SDS011;15966;51.540;11.870;2023-11-19T12:10:48;11.07;;;3.20;;
28828;SDS011;15966;51.540;11.870;2023-11-19T12:13:16;26.90;;;5.45;;
28828;SDS011;15966;51.540;11.870;2023-11-19T12:18:28;13.48;;;3.78;;
28828;SDS011;15966;51.540;11.870;2023-11-19T12:20:58;12.23;;;3.95;;
28828;SDS011;15966;51.540;11.870;2023-11-19T12:23:31;10.98;;;4.40;;
28828;SDS011;15966;51.540;11.870;2023-11-19T12:25:58;8.80;;;3.80;;
28828;SDS011;15966;51.540;11.870;2023-11-19T12:28:25;19.17;;;5.05;;
28828;SDS011;15966;51.540;11.870;2023-11-19T12:30:54;15.73;;;3.83;;
28828;SDS011;15966;51.540;11.870;2023-11-19T12:33:35;13.68;;;5.05;;
28828;SDS011;15966;51.540;11.870;2023-11-19T12:36:02;18.67;;;5.30;;
28828;SDS011;15966;51.540;11.870;2023-11-19T12:41:04;14.65;;;4.47;;
28828;SDS011;15966;51.540;11.870;2023-11-19T12:43:36;11.20;;;3.70;;
28828;SDS011;15966;51.540;11.870;2023-11-19T12:46:38;13.10;;;4.40;;
28828;SDS011;15966;51.540;11.870;2023-11-19T12:48:57;17.10;;;4.07;;
28828;SDS011;15966;51.540;11.870;2023-11-19T12:51:30;17.13;;;5.13;;
28828;SDS011;15966;51.540;11.870;2023-11-19T12:53:57;21.40;;;5.00;;
28828;SDS011;15966;51.540;11.870;2023-11-19T12:56:24;16.00;;;5.15;;
28828;SDS011;15966;51.540;11.870;2023-11-19T12:58:50;12.30;;;4.03;;
28828;SDS011;15966;51.540;11.870;2023-11-19T13:01:17;13.25;;;4.53;;
28828;SDS011;15966;51.540;11.870;2023-11-19T13:03:45;18.10;;;5.05;;
28828;SDS011;15966;51.540;11.870;2023-11-19T13:06:14;13.15;;;3.83;;
28828;SDS011;15966;51.540;11.870;2023-11-19T13:08:44;13.93;;;4.40;;
28828;SDS011;15966;51.540;11.870;2023-11-19T13:11:13;16.88;;;4.57;;
28828;SDS011;15966;51.540;11.870;2023-11-19T13:13:55;18.83;;;4.97;;
28828;SDS011;15966;51.540;11.870;2023-11-19T13:16:36;11.20;;;4.07;;
28828;SDS011;15966;51.540;11.870;2023-11-19T13:19:03;18.33;;;4.50;;
28828;SDS011;15966;51.540;11.870;2023-11-19T13:21:30;17.20;;;5.13;;
28828;SDS011;15966;51.540;11.870;2023-11-19T13:23:56;12.77;;;4.00;;
28828;SDS011;15966;51.540;11.870;2023-11-19T13:26:22;9.93;;;3.85;;
28828;SDS011;15966;51.540;11.870;2023-11-19T13:28:48;14.98;;;3.97;;
28828;SDS011;15966;51.540;11.870;2023-11-19T13:31:14;17.17;;;4.65;;
28828;SDS011;15966;51.540;11.870;2023-11-19T13:33:41;12.70;;;4.78;;
28828;SDS011;15966;51.540;11.870;2023-11-19T13:36:07;15.15;;;4.00;;
28828;SDS011;15966;51.540;11.870;2023-11-19T13:38:34;12.77;;;4.65;;
28828;SDS011;15966;51.540;11.870;2023-11-19T13:41:01;16.00;;;4.88;;
28828;SDS011;15966;51.540;11.870;2023-11-19T13:43:28;15.85;;;4.90;;
28828;SDS011;15966;51.540;11.870;2023-11-19T13:45:54;20.83;;;4.97;;
28828;SDS011;15966;51.540;11.870;2023-11-19T13:48:21;19.27;;;4.40;;
28828;SDS011;15966;51.540;11.870;2023-11-19T13:50:47;24.63;;;4.88;;
28828;SDS011;15966;51.540;11.870;2023-11-19T13:53:13;11.77;;;4.70;;
28828;SDS011;15966;51.540;11.870;2023-11-19T13:55:39;11.05;;;4.72;;
28828;SDS011;15966;51.540;11.870;2023-11-19T13:58:06;15.57;;;4.17;;
28828;SDS011;15966;51.540;11.870;2023-11-19T14:00:32;12.85;;;3.38;;
28828;SDS011;15966;51.540;11.870;2023-11-19T14:02:58;12.07;;;4.32;;
28828;SDS011;15966;51.540;11.870;2023-11-19T14:05:24;14.25;;;4.03;;
28828;SDS011;15966;51.540;11.870;2023-11-19T14:07:51;17.25;;;4.57;;
28828;SDS011;15966;51.540;11.870;2023-11-19T14:10:18;17.38;;;3.97;;
28828;SDS011;15966;51.540;11.870;2023-11-19T14:12:44;11.00;;;3.78;;
28828;SDS011;15966;51.540;11.870;2023-11-19T14:15:11;20.85;;;5.43;;
28828;SDS011;15966;51.540;11.870;2023-11-19T14:17:38;14.83;;;4.57;;
28828;SDS011;15966;51.540;11.870;2023-11-19T14:20:04;13.60;;;4.15;;
28828;SDS011;15966;51.540;11.870;2023-11-19T14:22:41;13.32;;;4.15;;
28828;SDS011;15966;51.540;11.870;2023-11-19T14:25:08;12.20;;;3.77;;
28828;SDS011;15966;51.540;11.870;2023-11-19T14:27:38;15.32;;;4.65;;
28828;SDS011;15966;51.540;11.870;2023-11-19T14:30:06;15.10;;;4.40;;
28828;SDS011;15966;51.540;11.870;2023-11-19T14:32:35;17.27;;;3.60;;
28828;SDS011;15966;51.540;11.870;2023-11-19T14:35:01;15.90;;;4.85;;
28828;SDS011;15966;51.540;11.870;2023-11-19T14:37:28;23.50;;;4.75;;
28828;SDS011;15966;51.540;11.870;2023-11-19T14:39:56;24.52;;;4.45;;
28828;SDS011;15966;51.540;11.870;2023-11-19T14:42:22;16.73;;;4.22;;
28828;SDS011;15966;51.540;11.870;2023-11-19T14:44:50;15.65;;;4.32;;
28828;SDS011;15966;51.540;11.870;2023-11-19T14:49:44;13.82;;;3.65;;
28828;SDS011;15966;51.540;11.870;2023-11-19T14:52:10;11.18;;;3.63;;
28828;SDS011;15966;51.540;11.870;2023-11-19T14:54:37;11.52;;;4.03;;
28828;SDS011;15966;51.540;11.870;2023-11-19T14:57:06;10.95;;;4.15;;
28828;SDS011;15966;51.540;11.870;2023-11-19T14:59:33;7.78;;;3.13;;
28828;SDS011;15966;51.540;11.870;2023-11-19T15:02:00;13.30;;;3.47;;
28828;SDS011;15966;51.540;11.870;2023-11-19T15:04:26;9.10;;;3.28;;